createdAt,value
2023-04-18T00:01:15.293Z,3.28
2023-04-18T00:06:19.498Z,3.78
2023-04-18T00:11:25.373Z,3.38
2023-04-18T00:16:29.414Z,6.28
2023-04-18T00:21:33.623Z,3.78
2023-04-18T00:26:39.060Z,3.53
2023-04-18T00:31:43.082Z,3.03
2023-04-18T00:36:47.576Z,5.07
2023-04-18T00:41:53.510Z,4.18
2023-04-18T00:46:57.624Z,3.63
2023-04-18T00:52:03.881Z,3.50
2023-04-18T00:57:09.870Z,4.45
2023-04-18T01:02:15.124Z,4.10
2023-04-18T01:07:19.518Z,6.50
2023-04-18T01:12:25.314Z,10.10
2023-04-18T01:17:31.699Z,6.30
2023-04-18T01:22:36.218Z,7.93
2023-04-18T01:27:41.692Z,7.85
2023-04-18T01:32:46.586Z,7.68
2023-04-18T01:37:50.940Z,5.60
2023-04-18T01:42:56.693Z,5.80
2023-04-18T01:48:01.114Z,5.70
2023-04-18T01:53:05.452Z,3.67
2023-04-18T01:58:13.981Z,7.88
2023-04-18T02:03:18.364Z,4.67
2023-04-18T02:08:22.976Z,2.92
2023-04-18T02:13:28.553Z,3.13
2023-04-18T02:18:34.783Z,2.90
2023-04-18T02:23:38.933Z,3.15
2023-04-18T02:28:44.599Z,3.10
2023-04-18T02:33:48.934Z,2.90
2023-04-18T02:38:53.060Z,2.92
2023-04-18T02:43:59.678Z,3.75
2023-04-18T02:49:03.906Z,6.32
2023-04-18T02:54:09.239Z,5.00
2023-04-18T02:59:29.001Z,3.07
2023-04-18T03:04:54.346Z,4.88
2023-04-18T03:09:58.792Z,6.85
2023-04-18T03:15:12.615Z,7.70
2023-04-18T03:20:16.860Z,9.10
2023-04-18T03:25:21.070Z,8.68
2023-04-18T03:30:30.867Z,7.90
2023-04-18T03:35:36.853Z,9.80
2023-04-18T03:40:42.256Z,9.77
2023-04-18T03:45:56.659Z,11.52
2023-04-18T03:51:01.668Z,8.75
2023-04-18T03:56:11.012Z,6.72
2023-04-18T04:01:30.237Z,6.47
2023-04-18T04:06:35.771Z,5.03
2023-04-18T04:11:39.931Z,5.18
2023-04-18T04:16:49.113Z,6.53
2023-04-18T04:21:55.433Z,8.65
2023-04-18T04:27:00.294Z,10.82
2023-04-18T04:32:07.350Z,16.88
2023-04-18T04:37:15.259Z,14.50
2023-04-18T04:42:32.229Z,11.68
2023-04-18T04:47:47.870Z,9.75
2023-04-18T04:52:52.653Z,7.95
2023-04-18T04:57:57.596Z,6.93
2023-04-18T05:03:29.685Z,6.70
2023-04-18T05:08:37.327Z,5.13
2023-04-18T05:13:41.477Z,5.30
2023-04-18T05:18:47.281Z,5.20
2023-04-18T05:23:51.473Z,4.70
2023-04-18T05:28:55.973Z,5.05
2023-04-18T05:34:03.232Z,5.68
2023-04-18T05:39:07.343Z,5.60
2023-04-18T05:44:11.558Z,5.38
2023-04-18T05:49:17.802Z,3.25
2023-04-18T05:54:22.753Z,3.30
2023-04-18T05:59:28.031Z,3.30
2023-04-18T06:04:33.845Z,3.40
2023-04-18T06:09:38.599Z,3.05
2023-04-18T06:14:43.574Z,5.68
2023-04-18T06:19:49.285Z,2.65
2023-04-18T06:24:56.619Z,3.27
2023-04-18T06:30:00.950Z,7.05
2023-04-18T06:35:10.627Z,3.63
2023-04-18T06:40:15.172Z,5.00
2023-04-18T06:45:21.882Z,3.97
2023-04-18T06:50:27.338Z,4.07
2023-04-18T06:55:31.486Z,4.07
2023-04-18T07:00:35.742Z,5.10
2023-04-18T07:05:41.224Z,4.32
2023-04-18T07:10:45.562Z,3.83
2023-04-18T07:15:49.626Z,3.88
2023-04-18T07:20:55.096Z,4.55
2023-04-18T07:26:02.159Z,4.38
2023-04-18T07:31:11.658Z,3.88
2023-04-18T07:36:17.212Z,4.55
2023-04-18T07:41:21.311Z,3.83
2023-04-18T07:46:25.497Z,4.00
2023-04-18T07:51:32.771Z,3.60
2023-04-18T07:56:36.953Z,4.18
2023-04-18T08:01:43.357Z,3.97
2023-04-18T08:06:48.828Z,6.07
2023-04-18T08:11:55.129Z,4.70
2023-04-18T08:16:59.204Z,4.15
2023-04-18T08:22:11.352Z,4.60
2023-04-18T08:27:15.376Z,4.88
2023-04-18T08:32:19.615Z,4.35
2023-04-18T08:37:25.253Z,3.95
2023-04-18T08:42:30.281Z,4.50
2023-04-18T08:47:36.329Z,4.28
2023-04-18T08:52:47.709Z,3.92
2023-04-18T08:57:54.256Z,5.13
2023-04-18T09:02:59.124Z,4.70
2023-04-18T09:08:23.790Z,3.92
2023-04-18T09:13:41.448Z,4.65
2023-04-18T09:19:12.385Z,4.22
2023-04-18T09:24:21.127Z,4.30
2023-04-18T09:29:47.646Z,3.37
2023-04-18T09:34:54.486Z,3.30
2023-04-18T09:40:01.547Z,3.92
2023-04-18T09:45:07.834Z,3.85
2023-04-18T09:50:12.836Z,3.40
2023-04-18T09:55:20.182Z,3.53
2023-04-18T10:00:30.713Z,3.75
2023-04-18T10:05:36.734Z,2.70
2023-04-18T10:10:42.222Z,1.30
2023-04-18T10:15:47.422Z,3.63
2023-04-18T10:20:52.029Z,1.65
2023-04-18T10:25:58.093Z,1.60
2023-04-18T10:31:07.559Z,4.25
2023-04-18T10:36:17.143Z,1.67
2023-04-18T10:41:25.144Z,1.65
2023-04-18T10:46:32.616Z,3.03
2023-04-18T10:51:37.024Z,3.97
2023-04-18T10:56:53.856Z,3.20
2023-04-18T11:02:01.139Z,2.45
2023-04-18T11:07:06.575Z,10.93
2023-04-18T11:12:13.113Z,8.93
2023-04-18T11:17:22.102Z,13.40
2023-04-18T11:22:26.340Z,8.30
2023-04-18T11:27:31.867Z,8.00
2023-04-18T11:32:37.411Z,2.72
2023-04-18T11:37:42.648Z,3.20
2023-04-18T11:42:48.106Z,2.42
2023-04-18T11:47:58.208Z,2.10
2023-04-18T11:53:02.581Z,2.10
2023-04-18T11:58:08.085Z,5.25
2023-04-18T12:03:17.677Z,3.50
2023-04-18T12:08:22.395Z,3.70
2023-04-18T12:13:34.035Z,4.45
2023-04-18T12:18:39.372Z,5.80
2023-04-18T12:23:46.526Z,3.85
2023-04-18T12:28:53.883Z,2.95
2023-04-18T12:34:00.170Z,3.78
2023-04-18T12:39:05.925Z,3.55
2023-04-18T12:44:11.767Z,4.00
2023-04-18T12:49:16.026Z,4.07
2023-04-18T12:54:20.260Z,3.78
2023-04-18T12:59:25.688Z,3.90
2023-04-18T13:04:29.866Z,4.85
2023-04-18T13:09:35.207Z,4.53
2023-04-18T13:14:41.084Z,4.43
2023-04-18T13:19:45.765Z,4.70
2023-04-18T13:24:49.954Z,6.80
2023-04-18T13:29:57.341Z,6.68
2023-04-18T13:35:03.127Z,5.28
2023-04-18T13:40:09.562Z,3.75
2023-04-18T13:45:15.308Z,2.88
2023-04-18T13:50:20.943Z,2.08
2023-04-18T13:55:25.874Z,1.50
2023-04-18T14:00:31.471Z,2.60
2023-04-18T14:05:36.857Z,2.53
2023-04-18T14:10:41.111Z,3.78
2023-04-18T14:15:46.886Z,6.22
2023-04-18T14:20:50.948Z,3.65
2023-04-18T14:25:55.365Z,2.28
2023-04-18T14:31:03.132Z,2.38
2023-04-18T14:36:08.644Z,2.83
2023-04-18T14:41:12.832Z,3.03
2023-04-18T14:46:18.449Z,2.75
2023-04-18T14:51:22.471Z,2.53
2023-04-18T14:56:26.771Z,2.80
2023-04-18T15:01:32.957Z,2.90
2023-04-18T15:06:37.704Z,2.50
2023-04-18T15:11:44.237Z,2.05
2023-04-18T15:16:51.683Z,2.50
2023-04-18T15:21:55.800Z,2.25
2023-04-18T15:27:00.283Z,2.65
2023-04-18T15:32:06.641Z,2.15
2023-04-18T15:37:11.376Z,1.77
2023-04-18T15:42:17.551Z,3.38
2023-04-18T15:47:24.059Z,3.20
2023-04-18T15:52:28.464Z,2.00
2023-04-18T15:57:34.013Z,5.28
2023-04-18T16:02:39.922Z,4.32
2023-04-18T16:07:46.590Z,2.75
2023-04-18T16:12:53.654Z,4.18
2023-04-18T16:18:00.430Z,4.70
2023-04-18T16:23:04.898Z,4.25
2023-04-18T16:28:09.086Z,3.65
2023-04-18T16:33:14.752Z,6.40
2023-04-18T16:38:19.124Z,11.80
2023-04-18T16:43:23.867Z,6.82
2023-04-18T16:48:31.112Z,9.23
2023-04-18T16:53:35.358Z,6.70
2023-04-18T16:58:39.428Z,11.43
2023-04-18T17:03:45.894Z,3.60
2023-04-18T17:08:51.118Z,2.80
2023-04-18T17:19:24.875Z,2.15
2023-04-18T17:24:29.165Z,2.40
2023-04-18T17:29:33.477Z,7.07
2023-04-18T17:34:41.663Z,8.13
2023-04-18T17:39:45.971Z,13.40
2023-04-18T17:44:50.969Z,9.98
2023-04-18T17:49:56.809Z,8.82
2023-04-18T17:55:01.838Z,9.98
2023-04-18T18:00:12.170Z,5.95
2023-04-18T18:05:21.195Z,6.47
2023-04-18T18:10:25.262Z,6.15
2023-04-18T18:15:30.135Z,3.55
2023-04-18T18:20:35.990Z,6.18
2023-04-18T18:25:40.421Z,5.82
2023-04-18T18:30:44.796Z,5.00
2023-04-18T18:35:50.721Z,3.67
2023-04-18T18:40:57.738Z,3.58
2023-04-18T18:46:02.287Z,11.43
2023-04-18T18:51:12.281Z,4.53
2023-04-18T18:56:19.407Z,3.63
2023-04-18T19:01:26.211Z,5.38
2023-04-18T19:06:32.244Z,5.25
2023-04-18T19:11:36.505Z,5.05
2023-04-18T19:16:40.844Z,4.18
2023-04-18T19:21:47.470Z,3.15
2023-04-18T19:26:53.024Z,3.67
2023-04-18T19:31:57.226Z,2.85
2023-04-18T19:37:03.140Z,3.13
2023-04-18T19:42:08.430Z,4.18
2023-04-18T19:47:13.133Z,4.25
2023-04-18T19:52:19.796Z,2.38
2023-04-18T19:57:25.612Z,3.03
2023-04-18T20:02:29.954Z,2.58
2023-04-18T20:07:36.084Z,7.60
2023-04-18T20:12:41.351Z,5.88
2023-04-18T20:17:45.648Z,4.95
2023-04-18T20:22:52.743Z,4.15
2023-04-18T20:27:57.474Z,7.75
2023-04-18T20:33:02.103Z,6.95
2023-04-18T20:38:11.488Z,6.75
2023-04-18T20:43:17.554Z,6.88
2023-04-18T20:48:22.025Z,6.95
2023-04-18T20:53:29.060Z,8.13
2023-04-18T20:58:32.981Z,15.85
2023-04-18T21:03:37.080Z,7.20
2023-04-18T21:08:45.384Z,6.13
2023-04-18T21:13:49.432Z,6.97
2023-04-18T21:18:54.820Z,7.93
2023-04-18T21:24:00.777Z,6.97
2023-04-18T21:29:05.897Z,6.88
2023-04-18T21:34:11.586Z,6.40
2023-04-18T21:39:17.554Z,5.97
2023-04-18T21:44:21.563Z,5.72
2023-04-18T21:49:25.977Z,7.47
2023-04-18T21:54:31.513Z,7.50
2023-04-18T21:59:35.799Z,7.22
2023-04-18T22:04:42.626Z,5.72
2023-04-18T22:09:48.776Z,7.57
2023-04-18T22:14:52.922Z,5.07
2023-04-18T22:19:58.244Z,3.20
2023-04-18T22:25:03.712Z,4.45
2023-04-18T22:30:08.868Z,5.28
2023-04-18T22:35:12.929Z,4.15
2023-04-18T22:40:18.959Z,3.30
2023-04-18T22:45:25.552Z,3.83
2023-04-18T22:50:30.331Z,3.08
2023-04-18T22:55:35.979Z,4.05
2023-04-18T23:00:40.066Z,2.90
2023-04-18T23:05:44.398Z,3.40
2023-04-18T23:10:49.996Z,5.32
2023-04-18T23:15:54.367Z,6.03
2023-04-18T23:20:58.576Z,5.10
2023-04-18T23:26:04.248Z,6.05
2023-04-18T23:31:10.158Z,5.75
2023-04-18T23:36:14.680Z,4.20
2023-04-18T23:41:20.386Z,5.22
2023-04-18T23:46:24.574Z,4.15
2023-04-18T23:51:31.160Z,3.13
2023-04-18T23:56:36.983Z,3.58
